createdAt,value
2022-12-12T00:00:18.020Z,-0.64
2022-12-12T00:02:49.921Z,-0.70
2022-12-12T00:05:21.365Z,-0.71
2022-12-12T00:07:52.655Z,-0.69
2022-12-12T00:10:23.931Z,-0.77
2022-12-12T00:12:55.257Z,-0.74
2022-12-12T00:15:27.761Z,-0.64
2022-12-12T00:17:59.070Z,-0.77
2022-12-12T00:20:30.369Z,-0.83
2022-12-12T00:23:01.695Z,-0.67
2022-12-12T00:25:33.043Z,-0.72
2022-12-12T00:28:04.539Z,-0.73
2022-12-12T00:30:35.819Z,-0.78
2022-12-12T00:33:07.085Z,-0.81
2022-12-12T00:35:38.480Z,-0.95
2022-12-12T00:38:09.973Z,-0.88
2022-12-12T00:40:41.248Z,-0.96
2022-12-12T00:43:12.662Z,-1.03
2022-12-12T00:45:43.924Z,-1.11
2022-12-12T00:48:15.192Z,-1.18
2022-12-12T00:50:47.013Z,-1.25
2022-12-12T00:53:19.057Z,-1.30
2022-12-12T00:55:57.839Z,-1.34
2022-12-12T00:58:30.739Z,-1.36
2022-12-12T01:01:07.781Z,-1.44
2022-12-12T01:03:41.069Z,-1.38
2022-12-12T01:06:13.080Z,-1.30
2022-12-12T01:08:44.436Z,-1.25
2022-12-12T01:11:16.467Z,-1.29
2022-12-12T01:13:49.447Z,-1.21
2022-12-12T01:16:22.067Z,-1.16
2022-12-12T01:18:53.540Z,-1.13
2022-12-12T01:21:25.102Z,-1.22
2022-12-12T01:23:56.429Z,-1.09
2022-12-12T01:26:27.806Z,-1.08
2022-12-12T01:28:59.052Z,-1.04
2022-12-12T01:31:30.455Z,-1.02
2022-12-12T01:34:01.752Z,-1.02
2022-12-12T01:36:33.414Z,-1.01
2022-12-12T01:39:05.723Z,-1.18
2022-12-12T01:41:37.678Z,-0.96
2022-12-12T01:44:52.594Z,-0.99
2022-12-12T01:47:25.355Z,-1.04
2022-12-12T01:50:04.465Z,-1.15
2022-12-12T01:52:44.297Z,-1.07
2022-12-12T01:55:20.496Z,-1.10
2022-12-12T01:57:54.574Z,-1.17
2022-12-12T02:00:25.933Z,-1.24
2022-12-12T02:02:57.669Z,-1.44
2022-12-12T02:05:33.775Z,-1.44
2022-12-12T02:08:06.356Z,-1.51
2022-12-12T02:10:37.662Z,-1.72
2022-12-12T02:13:19.421Z,-1.68
2022-12-12T02:16:22.459Z,-1.74
2022-12-12T02:19:05.048Z,-1.86
2022-12-12T02:21:46.298Z,-1.98
2022-12-12T02:24:42.082Z,-2.11
2022-12-12T02:27:48.216Z,-2.23
2022-12-12T02:30:41.073Z,-2.35
2022-12-12T02:33:49.664Z,-2.46
2022-12-12T02:36:28.766Z,-2.55
2022-12-12T02:39:27.379Z,-2.67
2022-12-12T02:42:10.628Z,-2.86
2022-12-12T02:44:56.341Z,-2.80
2022-12-12T02:51:15.621Z,-2.97
2022-12-12T02:53:46.961Z,-3.18
2022-12-12T02:56:43.183Z,-3.09
2022-12-12T02:59:20.841Z,-3.21
2022-12-12T03:02:19.256Z,-3.17
2022-12-12T03:05:21.354Z,-3.21
2022-12-12T03:08:11.349Z,-3.30
2022-12-12T03:11:41.223Z,-3.35
2022-12-12T03:14:29.432Z,-3.43
2022-12-12T03:17:17.529Z,-3.48
2022-12-12T03:20:02.328Z,-3.54
2022-12-12T03:22:43.502Z,-3.55
2022-12-12T03:25:27.850Z,-3.58
2022-12-12T03:28:37.980Z,-3.61
2022-12-12T03:31:12.195Z,-3.69
2022-12-12T03:33:46.880Z,-3.81
2022-12-12T03:36:25.864Z,-3.76
2022-12-12T03:39:03.245Z,-3.82
2022-12-12T03:41:43.433Z,-3.86
2022-12-12T03:44:20.305Z,-3.99
2022-12-12T03:46:56.407Z,-3.95
2022-12-12T03:49:45.265Z,-4.29
2022-12-12T03:52:33.409Z,-4.03
2022-12-12T03:55:12.485Z,-4.27
2022-12-12T03:58:00.539Z,-4.17
2022-12-12T04:00:33.641Z,-4.14
2022-12-12T04:03:18.316Z,-4.18
2022-12-12T04:06:25.994Z,-4.52
2022-12-12T04:09:22.438Z,-4.22
2022-12-12T04:12:37.770Z,-4.24
2022-12-12T04:15:25.211Z,-4.42
2022-12-12T04:18:17.162Z,-4.53
2022-12-12T04:21:37.417Z,-4.34
2022-12-12T04:24:22.799Z,-4.38
2022-12-12T04:27:04.769Z,-4.40
2022-12-12T04:29:38.723Z,-4.40
2022-12-12T04:32:32.641Z,-4.39
2022-12-12T04:35:14.015Z,-4.36
2022-12-12T04:37:55.189Z,-4.29
2022-12-12T04:40:33.759Z,-4.34
2022-12-12T04:43:10.183Z,-4.11
2022-12-12T04:45:43.844Z,-4.01
2022-12-12T04:48:20.586Z,-3.93
2022-12-12T04:50:53.255Z,-3.83
2022-12-12T04:53:32.373Z,-3.78
2022-12-12T04:56:09.339Z,-3.58
2022-12-12T04:58:40.772Z,-3.62
2022-12-12T05:01:23.241Z,-3.63
2022-12-12T05:03:58.353Z,-3.33
2022-12-12T05:06:44.953Z,-3.25
2022-12-12T05:09:17.847Z,-3.20
2022-12-12T05:11:49.692Z,-3.15
2022-12-12T05:14:21.370Z,-3.10
2022-12-12T05:16:55.682Z,-3.03
2022-12-12T05:19:26.952Z,-3.10
2022-12-12T05:21:58.222Z,-2.92
2022-12-12T05:24:31.251Z,-2.94
2022-12-12T05:27:02.636Z,-2.86
2022-12-12T05:29:34.065Z,-2.76
2022-12-12T05:32:05.348Z,-2.72
2022-12-12T05:34:36.611Z,-2.71
2022-12-12T05:37:07.887Z,-2.68
2022-12-12T05:39:39.199Z,-2.67
2022-12-12T05:42:10.449Z,-2.70
2022-12-12T05:44:41.796Z,-2.77
2022-12-12T05:47:13.093Z,-2.76
2022-12-12T05:49:45.187Z,-2.87
2022-12-12T05:52:16.664Z,-3.08
2022-12-12T05:54:47.945Z,-3.19
2022-12-12T05:57:19.654Z,-3.46
2022-12-12T05:59:50.917Z,-3.50
2022-12-12T06:02:22.230Z,-3.61
2022-12-12T06:04:53.624Z,-3.72
2022-12-12T06:07:25.008Z,-3.82
2022-12-12T06:09:56.315Z,-3.92
2022-12-12T06:12:27.676Z,-4.05
2022-12-12T06:14:58.979Z,-4.11
2022-12-12T06:17:33.271Z,-4.31
2022-12-12T06:20:05.554Z,-4.27
2022-12-12T06:22:36.940Z,-4.34
2022-12-12T06:25:08.939Z,-4.43
2022-12-12T06:27:40.194Z,-4.59
2022-12-12T06:30:11.928Z,-4.55
2022-12-12T06:32:43.323Z,-4.64
2022-12-12T06:35:14.996Z,-4.80
2022-12-12T06:37:48.347Z,-4.74
2022-12-12T06:40:19.851Z,-5.03
2022-12-12T06:42:51.206Z,-4.85
2022-12-12T06:45:22.618Z,-4.92
2022-12-12T06:47:53.908Z,-4.97
2022-12-12T06:50:25.294Z,-5.03
2022-12-12T06:52:56.628Z,-5.04
2022-12-12T06:55:27.955Z,-5.09
2022-12-12T06:57:59.339Z,-5.16
2022-12-12T07:00:30.803Z,-5.20
2022-12-12T07:03:02.187Z,-5.24
2022-12-12T07:05:33.626Z,-5.28
2022-12-12T07:08:04.973Z,-5.33
2022-12-12T07:10:36.571Z,-5.34
2022-12-12T07:13:08.169Z,-5.59
2022-12-12T07:15:48.289Z,-5.45
2022-12-12T07:18:19.711Z,-5.41
2022-12-12T07:20:51.042Z,-5.57
2022-12-12T07:23:22.300Z,-5.62
2022-12-12T07:25:53.559Z,-5.52
2022-12-12T07:28:25.059Z,-5.52
2022-12-12T07:30:56.449Z,-5.62
2022-12-12T07:33:39.556Z,-5.64
2022-12-12T07:36:14.545Z,-5.54
2022-12-12T07:38:45.919Z,-5.55
2022-12-12T07:41:18.810Z,-5.55
2022-12-12T07:43:50.917Z,-5.59
2022-12-12T07:46:25.170Z,-5.57
2022-12-12T07:48:57.018Z,-5.57
2022-12-12T07:51:29.609Z,-5.60
2022-12-12T07:54:01.141Z,-5.58
2022-12-12T07:56:32.653Z,-5.59
2022-12-12T07:59:03.916Z,-5.59
2022-12-12T08:01:35.656Z,-5.58
2022-12-12T08:04:07.024Z,-5.57
2022-12-12T08:06:38.600Z,-5.54
2022-12-12T08:09:09.941Z,-5.49
2022-12-12T08:11:46.132Z,-5.46
2022-12-12T08:14:17.936Z,-5.54
2022-12-12T08:16:49.241Z,-5.41
2022-12-12T08:19:20.594Z,-5.48
2022-12-12T08:21:51.891Z,-5.41
2022-12-12T08:24:23.244Z,-5.35
2022-12-12T08:26:54.559Z,-5.33
2022-12-12T08:29:25.936Z,-5.33
2022-12-12T08:31:57.611Z,-5.28
2022-12-12T08:34:28.942Z,-5.22
2022-12-12T08:37:00.304Z,-5.19
2022-12-12T08:39:31.655Z,-5.29
2022-12-12T08:42:03.722Z,-5.16
2022-12-12T08:44:35.078Z,-5.23
2022-12-12T08:47:06.722Z,-5.10
2022-12-12T08:49:38.055Z,-5.05
2022-12-12T08:52:10.307Z,-5.07
2022-12-12T08:54:41.661Z,-4.93
2022-12-12T08:57:12.960Z,-5.00
2022-12-12T08:59:44.276Z,-4.84
2022-12-12T09:02:15.706Z,-4.80
2022-12-12T09:04:47.123Z,-4.78
2022-12-12T09:07:18.444Z,-4.78
2022-12-12T09:09:49.784Z,-4.70
2022-12-12T09:12:21.144Z,-4.69
2022-12-12T09:14:52.505Z,-4.61
2022-12-12T09:17:23.836Z,-4.66
2022-12-12T09:19:55.226Z,-4.66
2022-12-12T09:22:26.853Z,-4.45
2022-12-12T09:24:58.280Z,-4.37
2022-12-12T09:27:29.706Z,-4.29
2022-12-12T09:30:00.998Z,-4.22
2022-12-12T09:32:32.267Z,-4.14
2022-12-12T09:35:03.692Z,-4.17
2022-12-12T09:37:35.090Z,-3.97
2022-12-12T09:40:08.075Z,-3.88
2022-12-12T09:42:47.948Z,-3.88
2022-12-12T09:45:20.559Z,-3.76
2022-12-12T09:47:58.120Z,-3.63
2022-12-12T09:50:44.863Z,-3.57
2022-12-12T09:53:20.111Z,-3.50
2022-12-12T09:56:19.315Z,-3.51
2022-12-12T09:59:00.826Z,-3.37
2022-12-12T10:01:52.879Z,-3.31
2022-12-12T10:04:39.869Z,-3.25
2022-12-12T10:07:18.254Z,-3.18
2022-12-12T10:10:02.907Z,-3.27
2022-12-12T10:12:34.644Z,-3.09
2022-12-12T10:15:13.721Z,-3.05
2022-12-12T10:17:46.678Z,-3.02
2022-12-12T10:20:27.479Z,-2.95
2022-12-12T10:23:19.182Z,-2.89
2022-12-12T10:26:02.145Z,-2.84
2022-12-12T10:28:35.224Z,-2.80
2022-12-12T10:31:40.690Z,-2.73
2022-12-12T10:34:33.992Z,-2.69
2022-12-12T10:37:39.503Z,-2.70
2022-12-12T10:40:42.002Z,-2.58
2022-12-12T10:43:41.020Z,-2.53
2022-12-12T10:46:20.517Z,-2.50
2022-12-12T10:48:52.240Z,-2.50
2022-12-12T10:51:27.435Z,-2.41
2022-12-12T10:53:58.688Z,-2.36
2022-12-12T10:56:30.136Z,-2.30
2022-12-12T10:59:01.848Z,-2.43
2022-12-12T11:04:31.452Z,-2.20
2022-12-12T11:07:02.708Z,-2.20
2022-12-12T11:09:34.032Z,-2.25
2022-12-12T11:12:16.480Z,-2.12
2022-12-12T11:14:52.835Z,-2.11
2022-12-12T11:17:29.396Z,-2.07
2022-12-12T11:20:09.712Z,-2.07
2022-12-12T11:22:40.996Z,-2.09
2022-12-12T11:25:44.623Z,-2.04
2022-12-12T11:28:23.115Z,-2.08
2022-12-12T11:30:56.446Z,-1.99
2022-12-12T11:33:35.324Z,-2.10
2022-12-12T11:36:06.992Z,-2.03
2022-12-12T11:38:40.786Z,-1.90
2022-12-12T11:41:12.386Z,-1.97
2022-12-12T11:43:49.753Z,-1.86
2022-12-12T11:46:31.936Z,-1.83
2022-12-12T11:49:05.032Z,-1.80
2022-12-12T11:51:40.484Z,-1.75
2022-12-12T11:54:12.025Z,-1.73
2022-12-12T11:56:50.095Z,-1.72
2022-12-12T11:59:30.387Z,-1.70
2022-12-12T12:02:22.946Z,-1.69
2022-12-12T12:05:27.829Z,-1.67
2022-12-12T12:08:22.526Z,-1.66
2022-12-12T12:11:15.235Z,-1.67
2022-12-12T12:14:02.855Z,-1.67
2022-12-12T12:16:47.016Z,-1.64
2022-12-12T12:19:45.784Z,-1.57
2022-12-12T12:22:35.606Z,-1.55
2022-12-12T12:25:25.468Z,-1.53
2022-12-12T12:28:04.525Z,-1.53
2022-12-12T12:31:00.443Z,-1.55
2022-12-12T12:33:48.436Z,-1.56
2022-12-12T12:36:24.798Z,-1.56
2022-12-12T12:39:04.358Z,-1.52
2022-12-12T12:41:50.851Z,-1.49
2022-12-12T12:44:39.323Z,-1.54
2022-12-12T12:47:31.258Z,-1.44
2022-12-12T12:50:16.138Z,-1.48
2022-12-12T12:52:56.909Z,-1.49
2022-12-12T12:55:43.847Z,-1.51
2022-12-12T12:58:18.547Z,-1.49
2022-12-12T13:01:02.452Z,-1.49
2022-12-12T13:03:47.806Z,-1.52
2022-12-12T13:06:27.695Z,-1.49
2022-12-12T13:09:18.026Z,-1.49
2022-12-12T13:11:53.110Z,-1.61
2022-12-12T13:14:48.568Z,-1.51
2022-12-12T13:17:44.696Z,-1.50
2022-12-12T13:20:20.906Z,-1.52
2022-12-12T13:23:15.453Z,-1.45
2022-12-12T13:26:12.863Z,-1.45
2022-12-12T13:28:49.153Z,-1.44
2022-12-12T13:31:42.730Z,-1.46
2022-12-12T13:34:20.584Z,-1.45
2022-12-12T13:36:53.779Z,-1.50
2022-12-12T13:39:32.938Z,-1.43
2022-12-12T13:42:07.391Z,-1.46
2022-12-12T13:44:47.297Z,-1.47
2022-12-12T13:47:21.842Z,-1.48
2022-12-12T13:50:02.576Z,-1.58
2022-12-12T13:52:42.078Z,-1.48
2022-12-12T13:55:13.284Z,-1.48
2022-12-12T13:58:02.510Z,-1.52
2022-12-12T14:00:41.596Z,-1.67
2022-12-12T14:03:12.912Z,-1.53
2022-12-12T14:05:49.898Z,-1.54
2022-12-12T14:08:26.201Z,-1.59
2022-12-12T14:11:01.711Z,-1.69
2022-12-12T14:13:42.853Z,-1.65
2022-12-12T14:16:14.396Z,-1.69
2022-12-12T14:18:51.544Z,-1.73
2022-12-12T14:21:44.352Z,-1.78
2022-12-12T14:24:33.767Z,-1.88
2022-12-12T14:27:09.682Z,-1.95
2022-12-12T14:29:43.283Z,-2.02
2022-12-12T14:32:34.531Z,-2.10
2022-12-12T14:35:28.988Z,-2.19
2022-12-12T14:38:34.343Z,-2.36
2022-12-12T14:41:14.002Z,-2.39
2022-12-12T14:44:37.120Z,-2.46
2022-12-12T14:46:44.066Z,-2.56
2022-12-12T14:49:17.692Z,-2.64
2022-12-12T14:51:51.979Z,-2.71
2022-12-12T14:54:24.924Z,-2.82
2022-12-12T14:57:01.357Z,-2.87
2022-12-12T14:59:33.952Z,-2.91
2022-12-12T15:02:18.140Z,-3.02
2022-12-12T15:04:58.165Z,-3.18
2022-12-12T15:07:38.363Z,-3.19
2022-12-12T15:10:24.116Z,-3.28
2022-12-12T15:12:55.356Z,-3.36
2022-12-12T15:15:31.582Z,-3.49
2022-12-12T15:18:02.968Z,-3.60
2022-12-12T15:20:35.204Z,-3.70
2022-12-12T15:23:07.340Z,-3.76
2022-12-12T15:25:46.572Z,-3.72
2022-12-12T15:28:21.003Z,-3.76
2022-12-12T15:30:53.688Z,-3.82
2022-12-12T15:33:27.145Z,-3.87
2022-12-12T15:36:04.925Z,-3.92
2022-12-12T15:38:36.396Z,-4.00
2022-12-12T15:41:13.531Z,-4.03
2022-12-12T15:43:45.288Z,-4.10
2022-12-12T15:46:16.944Z,-4.12
2022-12-12T15:48:52.185Z,-4.17
2022-12-12T15:51:29.985Z,-4.22
2022-12-12T15:54:02.516Z,-4.26
2022-12-12T15:56:33.800Z,-4.28
2022-12-12T15:59:05.008Z,-4.32
2022-12-12T16:01:36.487Z,-4.35
2022-12-12T16:04:11.370Z,-4.40
2022-12-12T16:06:44.724Z,-4.43
2022-12-12T16:09:21.686Z,-4.59
2022-12-12T16:11:57.515Z,-4.57
2022-12-12T16:14:42.147Z,-4.55
2022-12-12T16:17:23.198Z,-4.69
2022-12-12T16:20:00.643Z,-4.69
2022-12-12T16:22:43.894Z,-4.73
2022-12-12T16:25:27.217Z,-4.80
2022-12-12T16:28:08.069Z,-4.85
2022-12-12T16:30:41.752Z,-4.91
2022-12-12T16:33:25.360Z,-4.93
2022-12-12T16:35:59.178Z,-5.12
2022-12-12T16:38:31.023Z,-4.99
2022-12-12T16:41:17.139Z,-5.01
2022-12-12T16:43:48.587Z,-5.12
2022-12-12T16:46:21.649Z,-5.05
2022-12-12T16:48:53.307Z,-5.21
2022-12-12T16:51:28.396Z,-5.17
2022-12-12T16:53:59.888Z,-5.23
2022-12-12T16:56:31.205Z,-5.33
2022-12-12T16:59:02.517Z,-5.24
2022-12-12T17:01:38.583Z,-5.31
2022-12-12T17:04:18.269Z,-5.31
2022-12-12T17:06:50.247Z,-5.37
2022-12-12T17:09:25.475Z,-5.56
2022-12-12T17:11:59.637Z,-5.44
2022-12-12T17:14:30.990Z,-5.57
2022-12-12T17:17:05.433Z,-5.57
2022-12-12T17:19:36.756Z,-5.54
2022-12-12T17:22:08.118Z,-5.53
2022-12-12T17:24:39.465Z,-5.56
2022-12-12T17:27:10.751Z,-5.58
2022-12-12T17:29:42.004Z,-5.61
2022-12-12T17:32:13.332Z,-5.67
2022-12-12T17:34:44.655Z,-5.70
2022-12-12T17:37:15.951Z,-5.75
2022-12-12T17:39:47.324Z,-6.07
2022-12-12T17:42:18.850Z,-5.90
2022-12-12T17:44:50.293Z,-5.81
2022-12-12T17:47:21.726Z,-5.84
2022-12-12T17:49:53.008Z,-5.88
2022-12-12T17:52:24.321Z,-5.96
2022-12-12T17:55:53.570Z,-5.96
2022-12-12T17:57:46.833Z,-6.10
2022-12-12T18:00:18.342Z,-6.27
2022-12-12T18:02:49.618Z,-6.12
2022-12-12T18:05:20.960Z,-6.14
2022-12-12T18:07:52.381Z,-6.10
2022-12-12T18:10:23.696Z,-6.12
2022-12-12T18:12:55.089Z,-6.15
2022-12-12T18:15:26.343Z,-6.19
2022-12-12T18:17:57.613Z,-6.31
2022-12-12T18:20:31.491Z,-6.21
2022-12-12T18:23:03.367Z,-6.21
2022-12-12T18:25:37.374Z,-6.37
2022-12-12T18:28:12.179Z,-6.21
2022-12-12T18:30:43.513Z,-6.25
2022-12-12T18:33:14.770Z,-6.20
2022-12-12T18:35:46.023Z,-6.26
2022-12-12T18:38:18.985Z,-6.31
2022-12-12T18:40:52.680Z,-6.48
2022-12-12T18:43:26.106Z,-6.34
2022-12-12T18:46:02.960Z,-6.50
2022-12-12T18:48:35.258Z,-6.39
2022-12-12T18:51:11.412Z,-6.39
2022-12-12T18:53:44.270Z,-6.39
2022-12-12T18:56:19.179Z,-6.42
2022-12-12T18:58:53.115Z,-6.47
2022-12-12T19:01:27.628Z,-6.45
2022-12-12T19:04:04.529Z,-6.50
2022-12-12T19:06:40.034Z,-6.72
2022-12-12T19:09:16.668Z,-6.58
2022-12-12T19:11:49.434Z,-6.63
2022-12-12T19:14:21.505Z,-6.67
2022-12-12T19:16:52.919Z,-6.66
2022-12-12T19:19:24.404Z,-6.80
2022-12-12T19:21:55.670Z,-6.87
2022-12-12T19:24:27.066Z,-6.77
2022-12-12T19:26:58.326Z,-6.77
2022-12-12T19:29:29.648Z,-6.78
2022-12-12T19:32:00.991Z,-6.81
2022-12-12T19:34:32.360Z,-6.97
2022-12-12T19:37:03.852Z,-7.00
2022-12-12T19:39:35.287Z,-6.93
2022-12-12T19:42:06.693Z,-6.96
2022-12-12T19:44:43.187Z,-6.98
2022-12-12T19:47:16.666Z,-7.02
2022-12-12T19:49:49.462Z,-7.11
2022-12-12T19:52:21.104Z,-7.09
2022-12-12T19:54:52.624Z,-7.12
2022-12-12T19:57:26.162Z,-7.43
2022-12-12T19:59:57.507Z,-7.05
2022-12-12T20:02:29.141Z,-7.05
2022-12-12T20:05:00.455Z,-7.18
2022-12-12T20:07:31.752Z,-7.23
2022-12-12T20:10:03.378Z,-7.24
2022-12-12T20:12:34.653Z,-7.33
2022-12-12T20:15:06.499Z,-7.16
2022-12-12T20:17:37.855Z,-7.29
2022-12-12T20:20:10.843Z,-7.17
2022-12-12T20:22:42.198Z,-7.16
2022-12-12T20:25:13.487Z,-7.29
2022-12-12T20:27:44.986Z,-7.16
2022-12-12T20:30:16.740Z,-7.18
2022-12-12T20:32:48.323Z,-7.40
2022-12-12T20:35:19.661Z,-7.20
2022-12-12T20:37:51.017Z,-7.33
2022-12-12T20:40:22.586Z,-7.56
2022-12-12T20:43:01.615Z,-7.45
2022-12-12T20:45:38.486Z,-7.25
2022-12-12T20:48:09.967Z,-7.37
2022-12-12T20:50:41.636Z,-7.33
2022-12-12T20:53:13.234Z,-7.34
2022-12-12T20:55:44.767Z,-7.45
2022-12-12T20:58:16.083Z,-7.38
2022-12-12T21:00:47.388Z,-7.39
2022-12-12T21:03:18.712Z,-7.40
2022-12-12T21:05:50.488Z,-7.44
2022-12-12T21:08:21.883Z,-7.42
2022-12-12T21:10:53.197Z,-7.43
2022-12-12T21:13:24.512Z,-7.40
2022-12-12T21:15:55.822Z,-7.40
2022-12-12T21:18:27.212Z,-7.39
2022-12-12T21:20:58.451Z,-7.39
2022-12-12T21:23:30.256Z,-7.35
2022-12-12T21:26:06.422Z,-7.33
2022-12-12T21:28:38.290Z,-7.30
2022-12-12T21:31:11.697Z,-7.29
2022-12-12T21:33:43.696Z,-7.36
2022-12-12T21:36:17.742Z,-7.28
2022-12-12T21:38:50.022Z,-7.29
2022-12-12T21:41:22.796Z,-7.30
2022-12-12T21:43:59.299Z,-7.34
2022-12-12T21:46:30.615Z,-7.39
2022-12-12T21:49:19.903Z,-7.39
2022-12-12T21:51:52.532Z,-7.44
2022-12-12T21:54:24.056Z,-7.50
2022-12-12T21:56:56.905Z,-7.55
2022-12-12T21:59:28.951Z,-7.63
2022-12-12T22:02:00.603Z,-7.77
2022-12-12T22:04:32.147Z,-7.73
2022-12-12T22:07:03.387Z,-7.59
2022-12-12T22:09:34.633Z,-7.59
2022-12-12T22:12:06.441Z,-7.59
2022-12-12T22:14:37.689Z,-7.72
2022-12-12T22:17:08.940Z,-7.61
2022-12-12T22:19:40.172Z,-7.65
2022-12-12T22:22:11.420Z,-7.62
2022-12-12T22:24:42.686Z,-7.72
2022-12-12T22:27:13.979Z,-7.64
2022-12-12T22:29:45.331Z,-7.66
2022-12-12T22:32:16.690Z,-7.83
2022-12-12T22:34:48.488Z,-7.84
2022-12-12T22:37:19.792Z,-7.69
2022-12-12T22:39:51.048Z,-7.65
2022-12-12T22:42:22.304Z,-7.73
2022-12-12T22:44:53.548Z,-7.56
2022-12-12T22:47:24.886Z,-7.50
2022-12-12T22:49:56.261Z,-7.42
2022-12-12T22:52:28.841Z,-7.38
2022-12-12T22:55:00.304Z,-7.35
2022-12-12T22:57:31.603Z,-7.57
2022-12-12T23:00:04.459Z,-7.43
2022-12-12T23:02:35.728Z,-7.37
2022-12-12T23:05:07.324Z,-7.42
2022-12-12T23:07:38.690Z,-7.45
2022-12-12T23:10:10.109Z,-7.47
2022-12-12T23:12:41.395Z,-7.48
2022-12-12T23:15:13.047Z,-7.73
2022-12-12T23:17:44.503Z,-7.55
2022-12-12T23:20:15.887Z,-7.62
2022-12-12T23:22:47.195Z,-7.52
2022-12-12T23:25:18.461Z,-7.62
2022-12-12T23:27:49.740Z,-7.59
2022-12-12T23:30:20.993Z,-7.61
2022-12-12T23:32:52.443Z,-7.84
2022-12-12T23:35:23.686Z,-7.67
2022-12-12T23:37:54.941Z,-7.69
2022-12-12T23:40:26.231Z,-7.76
2022-12-12T23:42:57.479Z,-7.75
2022-12-12T23:45:29.407Z,-7.77
2022-12-12T23:48:00.703Z,-7.80
2022-12-12T23:50:32.616Z,-7.99
2022-12-12T23:53:09.050Z,-7.86
2022-12-12T23:55:41.769Z,-7.85
2022-12-12T23:58:13.121Z,-7.85
